sensor_id;sensor_type;location;lat;lon;timestamp;temperature;humidity
35593;DHT22;64447;52.140;5.602;2023-03-21T00:01:03;10.60;99.90
35593;DHT22;64447;52.140;5.602;2023-03-21T00:03:30;10.50;99.90
35593;DHT22;64447;52.140;5.602;2023-03-21T00:05:57;10.40;99.90
35593;DHT22;64447;52.140;5.602;2023-03-21T00:08:23;10.30;99.90
35593;DHT22;64447;52.140;5.602;2023-03-21T00:11:04;10.40;99.90
35593;DHT22;64447;52.140;5.602;2023-03-21T00:13:31;10.30;99.90
35593;DHT22;64447;52.140;5.602;2023-03-21T00:16:04;10.70;99.90
35593;DHT22;64447;52.140;5.602;2023-03-21T00:18:30;10.20;99.90
35593;DHT22;64447;52.140;5.602;2023-03-21T00:21:01;10.20;99.90
35593;DHT22;64447;52.140;5.602;2023-03-21T00:23:28;10.30;99.90
35593;DHT22;64447;52.140;5.602;2023-03-21T00:25:54;10.30;99.90
35593;DHT22;64447;52.140;5.602;2023-03-21T00:28:20;10.30;99.90
35593;DHT22;64447;52.140;5.602;2023-03-21T00:30:46;10.30;99.90
35593;DHT22;64447;52.140;5.602;2023-03-21T00:33:12;10.40;99.90
35593;DHT22;64447;52.140;5.602;2023-03-21T00:35:38;10.30;99.90
35593;DHT22;64447;52.140;5.602;2023-03-21T00:41:28;10.30;99.90
35593;DHT22;64447;52.140;5.602;2023-03-21T00:43:53;10.30;99.90
35593;DHT22;64447;52.140;5.602;2023-03-21T00:46:20;10.30;99.90
35593;DHT22;64447;52.140;5.602;2023-03-21T00:48:45;10.30;99.90
35593;DHT22;64447;52.140;5.602;2023-03-21T00:51:13;10.20;99.90
35593;DHT22;64447;52.140;5.602;2023-03-21T00:53:40;10.20;99.90
35593;DHT22;64447;52.140;5.602;2023-03-21T00:56:06;10.20;99.90
35593;DHT22;64447;52.140;5.602;2023-03-21T00:58:32;10.20;99.90
35593;DHT22;64447;52.140;5.602;2023-03-21T01:00:57;10.10;99.90
35593;DHT22;64447;52.140;5.602;2023-03-21T01:03:23;10.10;99.90
35593;DHT22;64447;52.140;5.602;2023-03-21T01:05:51;10.20;99.90
35593;DHT22;64447;52.140;5.602;2023-03-21T01:12:32;10.20;99.90
35593;DHT22;64447;52.140;5.602;2023-03-21T01:14:58;10.20;99.90
35593;DHT22;64447;52.140;5.602;2023-03-21T01:17:23;10.20;99.90
35593;DHT22;64447;52.140;5.602;2023-03-21T01:19:49;10.30;99.90
35593;DHT22;64447;52.140;5.602;2023-03-21T01:22:14;10.30;99.90
35593;DHT22;64447;52.140;5.602;2023-03-21T01:24:40;10.30;99.90
35593;DHT22;64447;52.140;5.602;2023-03-21T01:27:06;10.30;99.90
35593;DHT22;64447;52.140;5.602;2023-03-21T01:29:31;10.30;99.90
35593;DHT22;64447;52.140;5.602;2023-03-21T01:31:57;10.30;99.90
35593;DHT22;64447;52.140;5.602;2023-03-21T01:34:22;10.30;99.90
35593;DHT22;64447;52.140;5.602;2023-03-21T01:36:48;10.30;99.90
35593;DHT22;64447;52.140;5.602;2023-03-21T01:39:14;10.20;99.90
35593;DHT22;64447;52.140;5.602;2023-03-21T01:41:40;10.20;99.90
35593;DHT22;64447;52.140;5.602;2023-03-21T01:44:13;10.20;99.90
35593;DHT22;64447;52.140;5.602;2023-03-21T01:46:45;10.20;99.90
35593;DHT22;64447;52.140;5.602;2023-03-21T01:49:35;10.10;99.90
35593;DHT22;64447;52.140;5.602;2023-03-21T01:52:06;10.10;99.90
35593;DHT22;64447;52.140;5.602;2023-03-21T01:54:35;10.20;99.90
35593;DHT22;64447;52.140;5.602;2023-03-21T01:57:08;10.20;99.90
35593;DHT22;64447;52.140;5.602;2023-03-21T01:59:48;10.20;99.90
35593;DHT22;64447;52.140;5.602;2023-03-21T02:02:23;10.30;99.90
35593;DHT22;64447;52.140;5.602;2023-03-21T02:04:50;10.20;99.90
35593;DHT22;64447;52.140;5.602;2023-03-21T02:07:29;10.40;99.90
35593;DHT22;64447;52.140;5.602;2023-03-21T02:09:57;10.30;99.90
35593;DHT22;64447;52.140;5.602;2023-03-21T02:12:23;10.50;99.90
35593;DHT22;64447;52.140;5.602;2023-03-21T02:14:51;11.10;99.90
35593;DHT22;64447;52.140;5.602;2023-03-21T02:20:50;10.40;99.90
35593;DHT22;64447;52.140;5.602;2023-03-21T02:28:46;10.20;99.90
35593;DHT22;64447;52.140;5.602;2023-03-21T02:40:11;10.30;99.90
35593;DHT22;64447;52.140;5.602;2023-03-21T02:42:52;10.40;99.90
35593;DHT22;64447;52.140;5.602;2023-03-21T02:45:20;10.50;99.90
35593;DHT22;64447;52.140;5.602;2023-03-21T02:47:52;10.40;99.90
35593;DHT22;64447;52.140;5.602;2023-03-21T02:56:47;10.20;99.90
35593;DHT22;64447;52.140;5.602;2023-03-21T02:59:15;10.10;99.90
35593;DHT22;64447;52.140;5.602;2023-03-21T03:01:42;10.70;99.90
35593;DHT22;64447;52.140;5.602;2023-03-21T03:04:37;10.30;99.90
35593;DHT22;64447;52.140;5.602;2023-03-21T03:12:30;10.00;99.90
35593;DHT22;64447;52.140;5.602;2023-03-21T03:18:00;10.00;99.90
35593;DHT22;64447;52.140;5.602;2023-03-21T03:23:49;10.00;99.90
35593;DHT22;64447;52.140;5.602;2023-03-21T03:26:18;10.10;99.90
35593;DHT22;64447;52.140;5.602;2023-03-21T03:28:48;10.20;99.90
35593;DHT22;64447;52.140;5.602;2023-03-21T03:31:19;10.20;99.90
35593;DHT22;64447;52.140;5.602;2023-03-21T03:33:48;10.20;99.90
35593;DHT22;64447;52.140;5.602;2023-03-21T03:36:17;10.20;99.90
35593;DHT22;64447;52.140;5.602;2023-03-21T03:38:46;10.30;99.90
35593;DHT22;64447;52.140;5.602;2023-03-21T03:41:23;10.60;99.90
35593;DHT22;64447;52.140;5.602;2023-03-21T03:43:55;10.30;99.90
35593;DHT22;64447;52.140;5.602;2023-03-21T03:46:36;10.20;99.90
35593;DHT22;64447;52.140;5.602;2023-03-21T03:49:08;10.30;99.90
35593;DHT22;64447;52.140;5.602;2023-03-21T03:54:57;10.30;99.90
35593;DHT22;64447;52.140;5.602;2023-03-21T03:57:24;10.30;99.90
35593;DHT22;64447;52.140;5.602;2023-03-21T03:59:50;10.30;99.90
35593;DHT22;64447;52.140;5.602;2023-03-21T04:02:16;10.20;99.90
35593;DHT22;64447;52.140;5.602;2023-03-21T04:04:41;10.40;99.90
35593;DHT22;64447;52.140;5.602;2023-03-21T04:10:29;10.40;99.90
35593;DHT22;64447;52.140;5.602;2023-03-21T04:12:55;10.30;99.90
35593;DHT22;64447;52.140;5.602;2023-03-21T04:15:20;10.40;99.90
35593;DHT22;64447;52.140;5.602;2023-03-21T04:17:46;10.40;99.90
35593;DHT22;64447;52.140;5.602;2023-03-21T04:20:12;10.40;99.90
35593;DHT22;64447;52.140;5.602;2023-03-21T04:26:01;10.50;99.90
35593;DHT22;64447;52.140;5.602;2023-03-21T04:28:26;10.50;99.90
35593;DHT22;64447;52.140;5.602;2023-03-21T04:30:52;11.30;99.90
35593;DHT22;64447;52.140;5.602;2023-03-21T04:33:18;10.50;99.90
35593;DHT22;64447;52.140;5.602;2023-03-21T04:35:44;10.50;99.90
35593;DHT22;64447;52.140;5.602;2023-03-21T04:41:32;10.30;99.90
35593;DHT22;64447;52.140;5.602;2023-03-21T04:44:01;10.50;99.90
35593;DHT22;64447;52.140;5.602;2023-03-21T04:46:27;10.50;99.90
35593;DHT22;64447;52.140;5.602;2023-03-21T04:48:52;10.50;99.90
35593;DHT22;64447;52.140;5.602;2023-03-21T04:51:18;10.40;99.90
35593;DHT22;64447;52.140;5.602;2023-03-21T04:57:06;10.60;99.90
35593;DHT22;64447;52.140;5.602;2023-03-21T04:59:32;10.70;99.90
35593;DHT22;64447;52.140;5.602;2023-03-21T05:01:58;10.70;99.90
35593;DHT22;64447;52.140;5.602;2023-03-21T05:04:24;10.70;99.90
35593;DHT22;64447;52.140;5.602;2023-03-21T05:06:51;10.60;99.90
35593;DHT22;64447;52.140;5.602;2023-03-21T05:12:39;10.70;99.90
35593;DHT22;64447;52.140;5.602;2023-03-21T05:15:06;10.90;99.90
35593;DHT22;64447;52.140;5.602;2023-03-21T05:17:32;10.70;99.90
35593;DHT22;64447;52.140;5.602;2023-03-21T05:19:57;10.70;99.90
35593;DHT22;64447;52.140;5.602;2023-03-21T05:22:24;10.50;99.90
35593;DHT22;64447;52.140;5.602;2023-03-21T05:24:52;10.50;99.90
35593;DHT22;64447;52.140;5.602;2023-03-21T05:27:20;10.40;99.90
35593;DHT22;64447;52.140;5.602;2023-03-21T05:30:05;10.40;99.90
35593;DHT22;64447;52.140;5.602;2023-03-21T05:32:31;10.50;99.90
35593;DHT22;64447;52.140;5.602;2023-03-21T05:34:57;10.60;99.90
35593;DHT22;64447;52.140;5.602;2023-03-21T05:37:23;10.60;99.90
35593;DHT22;64447;52.140;5.602;2023-03-21T05:39:49;10.60;99.90
35593;DHT22;64447;52.140;5.602;2023-03-21T05:42:15;11.00;99.90
35593;DHT22;64447;52.140;5.602;2023-03-21T05:44:40;10.50;99.90
35593;DHT22;64447;52.140;5.602;2023-03-21T05:47:06;10.50;99.90
35593;DHT22;64447;52.140;5.602;2023-03-21T05:49:35;10.70;99.90
35593;DHT22;64447;52.140;5.602;2023-03-21T05:52:00;10.60;99.90
35593;DHT22;64447;52.140;5.602;2023-03-21T05:57:48;10.80;99.90
35593;DHT22;64447;52.140;5.602;2023-03-21T06:00:14;10.80;99.90
35593;DHT22;64447;52.140;5.602;2023-03-21T06:02:40;10.90;99.90
35593;DHT22;64447;52.140;5.602;2023-03-21T06:05:06;11.00;99.90
35593;DHT22;64447;52.140;5.602;2023-03-21T06:07:35;11.10;99.90
35593;DHT22;64447;52.140;5.602;2023-03-21T06:10:02;11.30;99.90
35593;DHT22;64447;52.140;5.602;2023-03-21T06:12:28;11.20;99.90
35593;DHT22;64447;52.140;5.602;2023-03-21T06:14:54;11.30;99.90
35593;DHT22;64447;52.140;5.602;2023-03-21T06:17:19;11.30;99.90
35593;DHT22;64447;52.140;5.602;2023-03-21T06:19:45;11.20;99.90
35593;DHT22;64447;52.140;5.602;2023-03-21T06:22:11;11.30;99.90
35593;DHT22;64447;52.140;5.602;2023-03-21T06:27:58;11.40;99.90
35593;DHT22;64447;52.140;5.602;2023-03-21T06:30:24;11.50;99.90
35593;DHT22;64447;52.140;5.602;2023-03-21T06:32:50;11.40;99.90
35593;DHT22;64447;52.140;5.602;2023-03-21T06:35:17;11.40;99.90
35593;DHT22;64447;52.140;5.602;2023-03-21T06:37:43;11.20;99.90
35593;DHT22;64447;52.140;5.602;2023-03-21T06:40:10;11.30;99.90
35593;DHT22;64447;52.140;5.602;2023-03-21T06:42:38;11.20;99.90
35593;DHT22;64447;52.140;5.602;2023-03-21T06:45:04;11.60;99.90
35593;DHT22;64447;52.140;5.602;2023-03-21T06:47:29;11.30;99.90
35593;DHT22;64447;52.140;5.602;2023-03-21T06:49:55;11.20;99.90
35593;DHT22;64447;52.140;5.602;2023-03-21T06:52:20;11.10;99.90
35593;DHT22;64447;52.140;5.602;2023-03-21T06:58:08;11.20;99.90
35593;DHT22;64447;52.140;5.602;2023-03-21T07:00:33;11.20;99.90
35593;DHT22;64447;52.140;5.602;2023-03-21T07:02:59;11.10;99.90
35593;DHT22;64447;52.140;5.602;2023-03-21T07:05:26;10.90;99.90
35593;DHT22;64447;52.140;5.602;2023-03-21T07:07:51;10.80;99.90
35593;DHT22;64447;52.140;5.602;2023-03-21T07:10:17;10.80;99.90
35593;DHT22;64447;52.140;5.602;2023-03-21T07:12:43;10.80;99.90
35593;DHT22;64447;52.140;5.602;2023-03-21T07:15:09;10.80;99.90
35593;DHT22;64447;52.140;5.602;2023-03-21T07:17:34;10.90;99.90
35593;DHT22;64447;52.140;5.602;2023-03-21T07:20:01;10.90;99.90
35593;DHT22;64447;52.140;5.602;2023-03-21T07:22:30;11.00;99.90
35593;DHT22;64447;52.140;5.602;2023-03-21T07:28:18;11.00;99.90
35593;DHT22;64447;52.140;5.602;2023-03-21T07:30:50;11.00;99.90
35593;DHT22;64447;52.140;5.602;2023-03-21T07:33:16;10.90;99.90
35593;DHT22;64447;52.140;5.602;2023-03-21T07:35:41;10.90;99.90
35593;DHT22;64447;52.140;5.602;2023-03-21T07:38:07;10.70;99.90
35593;DHT22;64447;52.140;5.602;2023-03-21T07:40:33;10.70;99.90
35593;DHT22;64447;52.140;5.602;2023-03-21T07:42:58;10.70;99.90
35593;DHT22;64447;52.140;5.602;2023-03-21T07:45:24;10.70;99.90
35593;DHT22;64447;52.140;5.602;2023-03-21T07:47:51;10.70;99.90
35593;DHT22;64447;52.140;5.602;2023-03-21T07:50:17;10.50;99.90
35593;DHT22;64447;52.140;5.602;2023-03-21T07:52:43;10.60;99.90
35593;DHT22;64447;52.140;5.602;2023-03-21T07:58:31;10.80;99.90
35593;DHT22;64447;52.140;5.602;2023-03-21T08:00:59;10.60;99.90
35593;DHT22;64447;52.140;5.602;2023-03-21T08:03:24;10.60;99.90
35593;DHT22;64447;52.140;5.602;2023-03-21T08:05:54;10.70;99.90
35593;DHT22;64447;52.140;5.602;2023-03-21T08:08:20;10.70;99.90
35593;DHT22;64447;52.140;5.602;2023-03-21T08:10:45;10.90;99.90
35593;DHT22;64447;52.140;5.602;2023-03-21T08:13:11;11.00;99.90
35593;DHT22;64447;52.140;5.602;2023-03-21T08:15:37;10.90;99.90
35593;DHT22;64447;52.140;5.602;2023-03-21T08:18:06;11.00;99.90
35593;DHT22;64447;52.140;5.602;2023-03-21T08:20:35;11.00;99.90
35593;DHT22;64447;52.140;5.602;2023-03-21T08:23:01;11.40;99.90
35593;DHT22;64447;52.140;5.602;2023-03-21T08:25:26;11.10;99.90
35593;DHT22;64447;52.140;5.602;2023-03-21T08:27:52;11.00;99.90
35593;DHT22;64447;52.140;5.602;2023-03-21T08:30:20;11.00;99.90
35593;DHT22;64447;52.140;5.602;2023-03-21T08:32:46;11.00;99.90
35593;DHT22;64447;52.140;5.602;2023-03-21T08:35:14;11.00;99.90
35593;DHT22;64447;52.140;5.602;2023-03-21T08:37:41;10.90;99.90
35593;DHT22;64447;52.140;5.602;2023-03-21T08:43:29;11.00;99.90
35593;DHT22;64447;52.140;5.602;2023-03-21T08:45:55;11.00;99.90
35593;DHT22;64447;52.140;5.602;2023-03-21T08:48:21;11.10;99.90
35593;DHT22;64447;52.140;5.602;2023-03-21T08:50:47;11.20;99.90
35593;DHT22;64447;52.140;5.602;2023-03-21T08:53:13;11.10;99.90
35593;DHT22;64447;52.140;5.602;2023-03-21T08:55:38;11.10;99.90
35593;DHT22;64447;52.140;5.602;2023-03-21T08:58:04;11.20;99.90
35593;DHT22;64447;52.140;5.602;2023-03-21T09:00:31;11.30;99.90
35593;DHT22;64447;52.140;5.602;2023-03-21T09:02:56;11.20;99.90
35593;DHT22;64447;52.140;5.602;2023-03-21T09:05:23;11.30;99.90
35593;DHT22;64447;52.140;5.602;2023-03-21T09:07:51;11.00;99.90
35593;DHT22;64447;52.140;5.602;2023-03-21T09:13:39;11.50;99.90
35593;DHT22;64447;52.140;5.602;2023-03-21T09:16:04;11.60;99.90
35593;DHT22;64447;52.140;5.602;2023-03-21T09:18:30;11.60;99.90
35593;DHT22;64447;52.140;5.602;2023-03-21T09:21:20;11.60;99.90
35593;DHT22;64447;52.140;5.602;2023-03-21T09:23:48;11.50;99.90
35593;DHT22;64447;52.140;5.602;2023-03-21T09:26:18;11.50;99.90
35593;DHT22;64447;52.140;5.602;2023-03-21T09:28:44;11.50;99.90
35593;DHT22;64447;52.140;5.602;2023-03-21T09:31:10;11.70;99.90
35593;DHT22;64447;52.140;5.602;2023-03-21T09:33:37;11.60;99.90
35593;DHT22;64447;52.140;5.602;2023-03-21T09:36:05;11.60;99.90
35593;DHT22;64447;52.140;5.602;2023-03-21T09:38:36;11.50;99.90
35593;DHT22;64447;52.140;5.602;2023-03-21T09:46:48;11.70;99.90
35593;DHT22;64447;52.140;5.602;2023-03-21T09:49:23;10.70;99.90
35593;DHT22;64447;52.140;5.602;2023-03-21T09:51:51;11.60;99.90
35593;DHT22;64447;52.140;5.602;2023-03-21T09:54:31;11.70;99.90
35593;DHT22;64447;52.140;5.602;2023-03-21T09:57:03;11.70;99.90
35593;DHT22;64447;52.140;5.602;2023-03-21T09:59:35;11.50;99.90
35593;DHT22;64447;52.140;5.602;2023-03-21T10:02:19;11.50;99.90
35593;DHT22;64447;52.140;5.602;2023-03-21T10:04:46;11.50;99.90
35593;DHT22;64447;52.140;5.602;2023-03-21T10:07:12;11.60;99.90
35593;DHT22;64447;52.140;5.602;2023-03-21T10:09:45;11.50;99.90
35593;DHT22;64447;52.140;5.602;2023-03-21T10:12:21;11.70;99.90
35593;DHT22;64447;52.140;5.602;2023-03-21T10:14:50;11.70;99.90
35593;DHT22;64447;52.140;5.602;2023-03-21T10:22:45;11.80;99.90
35593;DHT22;64447;52.140;5.602;2023-03-21T10:25:21;11.70;99.90
35593;DHT22;64447;52.140;5.602;2023-03-21T10:27:49;11.80;99.90
35593;DHT22;64447;52.140;5.602;2023-03-21T10:30:41;12.00;99.90
35593;DHT22;64447;52.140;5.602;2023-03-21T10:33:19;11.90;99.90
35593;DHT22;64447;52.140;5.602;2023-03-21T10:35:53;12.00;99.90
35593;DHT22;64447;52.140;5.602;2023-03-21T10:38:22;12.00;99.90
35593;DHT22;64447;52.140;5.602;2023-03-21T10:41:26;12.00;99.90
35593;DHT22;64447;52.140;5.602;2023-03-21T10:44:16;12.10;99.90
35593;DHT22;64447;52.140;5.602;2023-03-21T10:46:53;12.10;99.90
35593;DHT22;64447;52.140;5.602;2023-03-21T10:49:20;12.10;99.90
35593;DHT22;64447;52.140;5.602;2023-03-21T10:51:48;12.20;99.90
35593;DHT22;64447;52.140;5.602;2023-03-21T10:57:36;12.40;99.90
35593;DHT22;64447;52.140;5.602;2023-03-21T11:00:03;12.50;99.90
35593;DHT22;64447;52.140;5.602;2023-03-21T11:02:42;12.40;99.90
35593;DHT22;64447;52.140;5.602;2023-03-21T11:05:22;12.50;99.90
35593;DHT22;64447;52.140;5.602;2023-03-21T11:08:14;12.60;99.90
35593;DHT22;64447;52.140;5.602;2023-03-21T11:11:03;12.70;99.90
35593;DHT22;64447;52.140;5.602;2023-03-21T11:13:38;12.80;99.90
35593;DHT22;64447;52.140;5.602;2023-03-21T11:18:32;12.60;99.90
35593;DHT22;64447;52.140;5.602;2023-03-21T11:21:06;12.70;99.90
35593;DHT22;64447;52.140;5.602;2023-03-21T11:23:35;12.70;99.90
35593;DHT22;64447;52.140;5.602;2023-03-21T11:26:09;12.70;99.90
35593;DHT22;64447;52.140;5.602;2023-03-21T11:28:38;12.70;99.90
35593;DHT22;64447;52.140;5.602;2023-03-21T11:31:05;12.70;99.90
35593;DHT22;64447;52.140;5.602;2023-03-21T11:33:39;12.80;99.90
35593;DHT22;64447;52.140;5.602;2023-03-21T11:38:51;12.90;99.90
35593;DHT22;64447;52.140;5.602;2023-03-21T11:43:53;13.10;99.90
35593;DHT22;64447;52.140;5.602;2023-03-21T11:46:27;13.20;99.90
35593;DHT22;64447;52.140;5.602;2023-03-21T11:48:54;13.30;99.90
35593;DHT22;64447;52.140;5.602;2023-03-21T11:59:59;13.10;99.90
35593;DHT22;64447;52.140;5.602;2023-03-21T12:05:31;13.40;99.90
35593;DHT22;64447;52.140;5.602;2023-03-21T12:16:46;13.20;99.50
35593;DHT22;64447;52.140;5.602;2023-03-21T12:30:31;12.90;99.70
35593;DHT22;64447;52.140;5.602;2023-03-21T12:38:26;13.00;99.90
35593;DHT22;64447;52.140;5.602;2023-03-21T12:41:04;13.00;99.90
35593;DHT22;64447;52.140;5.602;2023-03-21T12:43:41;13.10;99.90
35593;DHT22;64447;52.140;5.602;2023-03-21T12:46:18;13.10;99.80
35593;DHT22;64447;52.140;5.602;2023-03-21T12:48:54;13.00;99.80
35593;DHT22;64447;52.140;5.602;2023-03-21T12:51:34;13.10;99.90
35593;DHT22;64447;52.140;5.602;2023-03-21T13:00:42;13.40;99.80
35593;DHT22;64447;52.140;5.602;2023-03-21T13:03:14;13.90;99.20
35593;DHT22;64447;52.140;5.602;2023-03-21T13:05:47;13.40;99.00
35593;DHT22;64447;52.140;5.602;2023-03-21T13:08:22;13.40;99.50
35593;DHT22;64447;52.140;5.602;2023-03-21T13:14:24;13.50;99.30
35593;DHT22;64447;52.140;5.602;2023-03-21T13:17:03;13.40;99.20
35593;DHT22;64447;52.140;5.602;2023-03-21T13:19:37;13.30;99.40
35593;DHT22;64447;52.140;5.602;2023-03-21T13:22:24;13.50;99.60
35593;DHT22;64447;52.140;5.602;2023-03-21T13:24:58;13.60;99.20
35593;DHT22;64447;52.140;5.602;2023-03-21T13:27:29;13.70;99.00
35593;DHT22;64447;52.140;5.602;2023-03-21T13:32:43;13.80;97.70
35593;DHT22;64447;52.140;5.602;2023-03-21T13:35:23;14.10;98.00
35593;DHT22;64447;52.140;5.602;2023-03-21T13:38:04;14.20;97.10
35593;DHT22;64447;52.140;5.602;2023-03-21T13:40:50;14.30;94.50
35593;DHT22;64447;52.140;5.602;2023-03-21T13:46:15;14.20;94.10
35593;DHT22;64447;52.140;5.602;2023-03-21T13:49:13;14.10;93.70
35593;DHT22;64447;52.140;5.602;2023-03-21T13:51:57;14.10;93.90
35593;DHT22;64447;52.140;5.602;2023-03-21T13:57:46;14.10;93.30
35593;DHT22;64447;52.140;5.602;2023-03-21T14:00:30;14.10;93.30
35593;DHT22;64447;52.140;5.602;2023-03-21T14:03:07;14.10;93.60
35593;DHT22;64447;52.140;5.602;2023-03-21T14:05:33;14.20;93.40
35593;DHT22;64447;52.140;5.602;2023-03-21T14:08:07;14.20;93.20
35593;DHT22;64447;52.140;5.602;2023-03-21T14:13:55;14.10;93.10
35593;DHT22;64447;52.140;5.602;2023-03-21T14:16:25;14.00;92.70
35593;DHT22;64447;52.140;5.602;2023-03-21T14:19:02;14.00;92.30
35593;DHT22;64447;52.140;5.602;2023-03-21T14:21:31;13.90;92.30
35593;DHT22;64447;52.140;5.602;2023-03-21T14:24:00;13.90;92.10
35593;DHT22;64447;52.140;5.602;2023-03-21T14:29:48;14.10;92.10
35593;DHT22;64447;52.140;5.602;2023-03-21T14:32:21;14.00;92.00
35593;DHT22;64447;52.140;5.602;2023-03-21T14:34:48;14.10;91.40
35593;DHT22;64447;52.140;5.602;2023-03-21T14:37:37;14.10;91.80
35593;DHT22;64447;52.140;5.602;2023-03-21T14:40:06;14.10;91.90
35593;DHT22;64447;52.140;5.602;2023-03-21T14:42:35;13.90;90.90
35593;DHT22;64447;52.140;5.602;2023-03-21T14:45:32;13.90;91.50
35593;DHT22;64447;52.140;5.602;2023-03-21T14:50:29;13.80;91.80
35593;DHT22;64447;52.140;5.602;2023-03-21T14:52:57;13.80;92.30
35593;DHT22;64447;52.140;5.602;2023-03-21T14:55:23;13.80;92.10
35593;DHT22;64447;52.140;5.602;2023-03-21T14:57:48;13.80;91.90
35593;DHT22;64447;52.140;5.602;2023-03-21T15:00:23;13.90;92.10
35593;DHT22;64447;52.140;5.602;2023-03-21T15:02:51;13.90;91.90
35593;DHT22;64447;52.140;5.602;2023-03-21T15:05:35;13.80;91.70
35593;DHT22;64447;52.140;5.602;2023-03-21T15:10:41;13.80;92.40
35593;DHT22;64447;52.140;5.602;2023-03-21T15:13:15;13.70;92.80
35593;DHT22;64447;52.140;5.602;2023-03-21T15:15:42;13.70;92.90
35593;DHT22;64447;52.140;5.602;2023-03-21T15:18:13;13.80;93.00
35593;DHT22;64447;52.140;5.602;2023-03-21T15:20:40;14.00;93.00
35593;DHT22;64447;52.140;5.602;2023-03-21T15:23:10;13.80;92.60
35593;DHT22;64447;52.140;5.602;2023-03-21T15:25:37;13.80;93.00
35593;DHT22;64447;52.140;5.602;2023-03-21T15:28:04;13.70;93.00
35593;DHT22;64447;52.140;5.602;2023-03-21T15:30:31;13.70;93.40
35593;DHT22;64447;52.140;5.602;2023-03-21T15:33:05;13.80;93.50
35593;DHT22;64447;52.140;5.602;2023-03-21T15:35:39;13.80;93.60
35593;DHT22;64447;52.140;5.602;2023-03-21T15:38:06;13.70;93.40
35593;DHT22;64447;52.140;5.602;2023-03-21T15:40:33;13.70;93.60
35593;DHT22;64447;52.140;5.602;2023-03-21T15:43:12;13.80;93.70
35593;DHT22;64447;52.140;5.602;2023-03-21T15:45:47;13.80;93.70
35593;DHT22;64447;52.140;5.602;2023-03-21T15:48:14;13.70;93.90
35593;DHT22;64447;52.140;5.602;2023-03-21T15:51:05;13.60;93.40
35593;DHT22;64447;52.140;5.602;2023-03-21T15:53:34;13.60;93.60
35593;DHT22;64447;52.140;5.602;2023-03-21T15:56:01;13.60;94.20
35593;DHT22;64447;52.140;5.602;2023-03-21T15:58:42;13.60;94.10
35593;DHT22;64447;52.140;5.602;2023-03-21T16:01:17;13.60;94.40
35593;DHT22;64447;52.140;5.602;2023-03-21T16:03:48;13.60;94.50
35593;DHT22;64447;52.140;5.602;2023-03-21T16:06:21;13.60;94.60
35593;DHT22;64447;52.140;5.602;2023-03-21T16:08:53;13.60;94.70
35593;DHT22;64447;52.140;5.602;2023-03-21T16:11:28;13.60;94.90
35593;DHT22;64447;52.140;5.602;2023-03-21T16:14:01;13.60;94.80
35593;DHT22;64447;52.140;5.602;2023-03-21T16:16:28;13.50;95.10
35593;DHT22;64447;52.140;5.602;2023-03-21T16:18:55;13.50;95.10
35593;DHT22;64447;52.140;5.602;2023-03-21T16:21:24;13.50;95.00
35593;DHT22;64447;52.140;5.602;2023-03-21T16:23:51;13.60;95.30
35593;DHT22;64447;52.140;5.602;2023-03-21T16:26:22;13.50;95.40
35593;DHT22;64447;52.140;5.602;2023-03-21T16:28:49;13.60;95.40
35593;DHT22;64447;52.140;5.602;2023-03-21T16:31:18;13.60;95.50
35593;DHT22;64447;52.140;5.602;2023-03-21T16:33:44;13.50;95.60
35593;DHT22;64447;52.140;5.602;2023-03-21T16:36:37;13.40;96.00
35593;DHT22;64447;52.140;5.602;2023-03-21T16:39:23;13.40;96.50
35593;DHT22;64447;52.140;5.602;2023-03-21T16:41:50;13.30;97.70
35593;DHT22;64447;52.140;5.602;2023-03-21T16:44:16;13.10;98.60
35593;DHT22;64447;52.140;5.602;2023-03-21T16:46:43;12.90;99.50
35593;DHT22;64447;52.140;5.602;2023-03-21T16:49:21;12.90;99.90
35593;DHT22;64447;52.140;5.602;2023-03-21T16:51:48;12.80;99.90
35593;DHT22;64447;52.140;5.602;2023-03-21T16:54:14;12.70;99.90
35593;DHT22;64447;52.140;5.602;2023-03-21T16:56:43;12.60;99.90
35593;DHT22;64447;52.140;5.602;2023-03-21T16:59:12;12.60;99.90
35593;DHT22;64447;52.140;5.602;2023-03-21T17:01:38;12.50;99.90
35593;DHT22;64447;52.140;5.602;2023-03-21T17:04:06;12.50;99.90
35593;DHT22;64447;52.140;5.602;2023-03-21T17:06:32;12.50;99.90
35593;DHT22;64447;52.140;5.602;2023-03-21T17:09:01;12.70;99.90
35593;DHT22;64447;52.140;5.602;2023-03-21T17:11:28;12.60;99.90
35593;DHT22;64447;52.140;5.602;2023-03-21T17:14:00;12.60;99.90
35593;DHT22;64447;52.140;5.602;2023-03-21T17:16:26;12.70;99.90
35593;DHT22;64447;52.140;5.602;2023-03-21T17:18:53;12.60;99.90
35593;DHT22;64447;52.140;5.602;2023-03-21T17:21:22;12.60;99.90
35593;DHT22;64447;52.140;5.602;2023-03-21T17:23:48;12.80;99.90
35593;DHT22;64447;52.140;5.602;2023-03-21T17:26:19;12.80;99.90
35593;DHT22;64447;52.140;5.602;2023-03-21T17:28:45;12.80;99.90
35593;DHT22;64447;52.140;5.602;2023-03-21T17:31:16;12.80;99.90
35593;DHT22;64447;52.140;5.602;2023-03-21T17:33:42;12.70;99.90
35593;DHT22;64447;52.140;5.602;2023-03-21T17:36:17;12.60;99.90
35593;DHT22;64447;52.140;5.602;2023-03-21T17:38:43;12.80;99.90
35593;DHT22;64447;52.140;5.602;2023-03-21T17:41:14;12.80;99.90
35593;DHT22;64447;52.140;5.602;2023-03-21T17:43:40;12.60;99.90
35593;DHT22;64447;52.140;5.602;2023-03-21T17:46:14;12.70;99.90
35593;DHT22;64447;52.140;5.602;2023-03-21T17:48:40;12.80;99.90
35593;DHT22;64447;52.140;5.602;2023-03-21T17:51:06;12.70;99.90
35593;DHT22;64447;52.140;5.602;2023-03-21T17:53:32;12.70;99.90
35593;DHT22;64447;52.140;5.602;2023-03-21T17:55:58;12.60;99.90
35593;DHT22;64447;52.140;5.602;2023-03-21T17:58:24;12.70;99.90
35593;DHT22;64447;52.140;5.602;2023-03-21T18:00:50;12.60;99.90
35593;DHT22;64447;52.140;5.602;2023-03-21T18:03:16;12.60;99.90
35593;DHT22;64447;52.140;5.602;2023-03-21T18:05:42;12.60;99.90
35593;DHT22;64447;52.140;5.602;2023-03-21T18:08:09;12.50;99.90
35593;DHT22;64447;52.140;5.602;2023-03-21T18:10:35;12.50;99.90
35593;DHT22;64447;52.140;5.602;2023-03-21T18:13:01;12.50;99.90
35593;DHT22;64447;52.140;5.602;2023-03-21T18:15:26;12.40;99.90
35593;DHT22;64447;52.140;5.602;2023-03-21T18:17:52;12.50;99.90
35593;DHT22;64447;52.140;5.602;2023-03-21T18:20:21;12.40;99.90
35593;DHT22;64447;52.140;5.602;2023-03-21T18:22:48;12.30;99.90
35593;DHT22;64447;52.140;5.602;2023-03-21T18:25:14;12.30;99.90
35593;DHT22;64447;52.140;5.602;2023-03-21T18:27:41;12.20;99.90
35593;DHT22;64447;52.140;5.602;2023-03-21T18:30:08;12.30;99.90
35593;DHT22;64447;52.140;5.602;2023-03-21T18:32:37;12.40;99.90
35593;DHT22;64447;52.140;5.602;2023-03-21T18:35:04;12.20;99.90
35593;DHT22;64447;52.140;5.602;2023-03-21T18:37:30;12.20;99.90
35593;DHT22;64447;52.140;5.602;2023-03-21T18:39:57;12.20;99.90
35593;DHT22;64447;52.140;5.602;2023-03-21T18:42:24;12.10;99.90